Aktualne dane pomiarowe

Uwaga, wersja testowa! Automatyczne pobieranie danych za pomocą narzędzi lub skryptów to umożliwiających jest zabronione.

Dane meteo z obszaru Polski uzyskane na podstawie depesz SYNOP pobieranych co godzinę z NWS. Najedź myszką na symbol przedstawiony w tabeli, aby uzyskać informacje co do jego znaczenia. Prosimy pamiętać, że to testowa wersja strony, która jeszcze nie jest ukończona. Stworzono również jest krótki FAQ dotyczący korzystania z tej podstrony Anomalie temperatury w chwili obecnej odniesione są do okresu referencyjnego 1951-2016. Okres ten będzie później zmieniony na 1981-2010. Kliknij ikonę aby pobrać plik CSV. Kliknij ikonę aby wygenerować mapę synoptyczną dla danego terminu.

Wybierz Datę:    

        

Mirosławiec (12226)

Dane terminowe dla wybranej stacji. Kliknij datę, aby otrzymać dane z tego terminu dla wszystkich stacji.

TemperaturaZachmurzenieWiatrCiśnienieOpadyPogoda
 Data t td wb tx tn tg rh  Nt Nl Cl Cm Ch ws wd g1 g2 wx mslp ppp ch 24h 12h t ww ww w1 w2  
2019-08-08 23:00:00 12.2 11.9 11.9--- 986.0wx-wx1----1011.9 993.8 0.6---wx---
2019-08-08 22:00:00 13.7 13.4 13.5--- 984.0wx-wx1wx---1011.6 993.7 1.0---wx---
2019-08-08 21:00:00 12.7 12.5 12.5--- 994.0wx-wx1----1011.5 993.5 1.3---wx---
2019-08-08 20:00:00 13.4 13.1 13.1--- 984.0wx-wx1----1011.2 993.2 1.1---wx---
2019-08-08 19:00:00 14.2 13.7 13.8--- 978.0wx-wx1wx---1010.6 992.7 0.6---wx---
2019-08-08 18:00:00 16.1 14.6 15.0--- 9135.0wxwxwxwx1wx-10-1010.0 992.2 0.9---wx-w1w2--
2019-08-08 17:00:00 17.1 13.0 14.4--- 776.0wxwxwx9wx-12-1009.9 992.2 0.8---wx---
2019-08-08 16:00:00 20.0 13.5 15.8--- 663.8wxwxwx6wx-12-1009.6 992.1 0.4---wx---
2019-08-08 15:00:00 24.5 11.1 16.5--- 4360.0wxwxwx6wx-10-1008.5 991.3 -0.6---------
2019-08-08 14:00:00 23.8 10.5 15.9--- 4360.0wxwxwx5wx-11-1008.8 991.5 -0.7---------
2019-08-08 13:00:00 23.1 11.2 15.9--- 4760.0wxwxwx4wx-10-1009.0 991.7 -0.3---------
2019-08-08 12:00:00 23.7 10.4 15.8--- 4360.0wxwxwx6wx---1009.2 991.9 0.0---------
2019-08-08 11:00:00 22.2 12.2 16.0--- 5355.0wxwxwx6wx---1009.6 992.2 0.3---------
2019-08-08 10:00:00 21.1 11.7 15.3--- 5555.0wxwxwx6wx---1009.5 992.0 0.7---------
2019-08-08 09:00:00 21.1 14.3 16.7--- 6550.0wxwxwx4wx-10-1009.3 991.9 1.0---------
2019-08-08 08:00:00 19.4 14.5 16.1--- 7345.0wxwxwx4wx---1009.3 991.8 1.2---------
2019-08-08 07:00:00 18.3 15.0 16.0--- 8135.0wx-4wx---1008.9 991.3 1.2---------
2019-08-08 06:00:00 16.2 14.2 14.8--- 8810.0wx-4wx---1008.6 990.9 1.2---------
2019-08-08 05:00:00 15.1 14.3 14.5--- 9510.0wx-4wx---1008.4 990.6 1.4---------
2019-08-08 04:00:00 14.7 14.1 14.2--- 9610.0wx-4wx---1007.9 990.1 1.2---------
2019-08-08 03:00:00 15.2 14.4 14.6--- 9510.0wx-4wx---1007.5 989.7 1.2---------
2019-08-08 02:00:00 15.9 15.1 15.3--- 9510.0wx-4wx---1006.9 989.2 1.1---------
2019-08-08 01:00:00 16.0 15.2 15.4--- 9510.0wx-wx4wx---1006.6 988.9 0.8---------
2019-08-08 00:00:00 16.8 15.7 16.0--- 9310.0wx-wx4wx---1006.1 988.5 0.8---------
2019-08-07 23:00:00 17.3 16.2 16.5--- 9310.0wx-wx4wx---1005.8 988.2 0.2---------
2019-08-07 22:00:00 17.3 16.8 16.9--- 978.0wxwxwx3wx---1005.8 988.2 0.1---wx---
2019-08-07 21:00:00 16.8 16.5 16.6--- 988.0wxwxwx2wx---1005.4 987.8 0.6---wx---
2019-08-07 20:00:00 17.0 16.7 16.8--- 9810.0wx-wx2wx---1005.6 988.0 0.2---------
2019-08-07 19:00:00 17.1 16.6 16.7--- 9710.0wx-wxwx1----1005.7 988.1 -0.3---------
2019-08-07 18:00:00 17.4 16.9 17.0--- 9710.0wx-wx2wx---1004.9 987.3 -1.2---------
2019-08-07 17:00:00 17.5 16.9 17.1--- 9610.0wx-wx2wx---1005.4 987.8 -0.1---wx-w1w2--
2019-08-07 16:00:00 16.9 16.1 16.3--- 957.0wxwxwxwx2wx---1006.0 988.4 -0.2---wx-w1--
2019-08-07 15:00:00 21.7 15.6 17.6--- 688.0wxwxwxwx6wx---1005.8 988.5 -0.4---wx---
2019-08-07 14:00:00 24.7 14.2 18.1--- 5210.0wxwxwxwx3wx---1005.0 987.9 -1.8---------
2019-08-07 13:00:00 24.4 13.6 17.6--- 5110.0wxwxwxwx3wx---1005.8 988.6 -1.4---------
2019-08-07 12:00:00 24.8 13.1 17.5--- 4810.0wxwxwxwx2wx---1006.1 988.9 -1.2---------
2019-08-07 11:00:00 24.3 15.0 18.3--- 5610.0wxwxwxwx3wx---1006.9 989.7 -0.5---------
2019-08-07 10:00:00 24.1 14.8 18.1--- 5610.0wxwxwxwx1----1007.2 990.0 -0.3---------
2019-08-07 09:00:00 22.2 15.8 17.9--- 6710.0wxwxwxwx1----1007.4 990.1 -0.3---------
2019-08-07 08:00:00 20.0 17.4 18.2--- 8510.0wxwxwx2wx---1007.6 990.2 0.0---------
2019-08-07 07:00:00 17.7 17.7 17.7--- 1008.0wxwxwx2wx---1007.8 990.2 0.1---wx-w1w2--
2019-08-07 06:00:00 16.5 16.5 16.5--- 1001.1wxwxwx2wx---1008.1 990.4 0.3---wx-w1w2--
2019-08-07 05:00:00 14.9 14.9 14.9--- 1000.4wxwxwx1wx---1008.0 990.2 -0.2---wx-w2--
2019-08-07 04:00:00 13.7 13.7 13.7--- 1002.0wxwxwx1----1008.0 990.1 -0.7---wx-w1w2--
2019-08-07 03:00:00 13.1 13.1 13.1--- 1000.5wxwxwx1----1008.0 990.1 -1.1---wx-w1w2--
2019-08-07 02:00:00 13.9 13.9 13.9--- 1000.5wxwxwx1----1008.3 990.4 -0.8---wx-w1w2--
2019-08-07 01:00:00 15.5 15.5 15.5--- 1000.5wxwxwx1----1008.6 990.8 -0.2---wx-w1w2--
2019-08-07 00:00:00 15.0 15.0 15.0--- 1002.0wxwxwx1----1009.0 991.2 0.3---wx-w1w2--
3.5 ms

 

Print Friendly, PDF & Email